Observations

82.6 °F / 28.1 °C
ENE at 14 MPH
81%
76.5°F / 24.7 °C
29.87" (1011 mb)
10 mile(s)
partly cloudy
2017.05.28 1140 UTC

Observations

Surface


Raw METARs

2017/05/28 11:40
PKWA 281140Z AUTO 07012KT 10SM SCT017 SCT026 SCT033 28/25 A2987 RMK AO2 T02810247

Translated METAR

Kwajalein, Bucholz AAF, Kwajalein KMR ATOL Airport, Marshall Islands (PKWA) 08-43N 167-44E 2M
May 28, 2017 - 07:40 AM EDT / 2017.05.28 1140 UTC
Wind: from the ENE (070 degrees) at 14 MPH (12 KT):0
Visibility: 10 mile(s):0
Sky conditions: partly cloudy
Temperature: 82.6 F (28.1 C)
Dew Point: 76.5 F (24.7 C)
Relative Humidity: 81%
Pressure (altimeter): 29.87 in. Hg (1011 hPa)
ob: PKWA 281140Z AUTO 07012KT 10SM SCT017 SCT026 SCT033 28/25 A2987 RMK AO2 T02810247
cycle: 11



Upper Air


Latest Skew-T

Skew T Diagram

Latest Data File